Latest Coastal Weather Observations for Cape Nelson

IDV60701

Issued at 9:12 pm EDT Wednesday 7 December 2022 (issued every 10 minutes, with the page automatically refreshed every 10 minutes)

About coastal observations | Map of coastal stations | Coastal observations for VIC | Marine services | Other Formats
Station Details ID: 090184 Name: CAPE NELSON LIGHTHOUSE Lat: -38.43 Lon: 141.54 Height: 45.4 m
Data from the previous 72 hours. | See also: Recent months at Cape Nelson
Date/Time
EDT
Wind Sea
Height
m
Swell Vis
km
Cloud Weather Temp
°C
Press
MSL
hPa
Rain since
9am
mm
Dir  Spd
kts
Gust
kts
Height
m
Period
s
Dir
07/09:00pm S 13 25 - - - - - - - 12.4 1011.6 0.2
07/08:42pm SSE 14 27 - - - - - - - 12.5 1011.4 0.2
07/08:30pm SSE 11 20 - - - - - - - 12.4 1011.0 0.2
07/08:00pm SSE 12 26 - - - - - - - 12.5 1010.9 0.2
07/07:30pm SSE 13 27 - - - - - - - 12.8 1010.3 0.2
07/07:08pm S 14 26 - - - - - - - 12.9 1009.9 0.2
07/07:00pm SE 13 25 - - - - - - - 13.0 1009.7 0.2
07/06:30pm SSE 13 26 - - - - - - - 13.0 1009.2 0.2
07/06:29pm SSE 13 26 - - - - - - - 12.9 1009.2 0.2
07/06:00pm ENE 12 20 - - - - - - - 13.6 1008.5 0.2
07/05:30pm S 15 28 - - - - - - - 13.7 1008.4 0.2
07/05:19pm SSE 14 29 - - - - - - - 13.6 1008.3 0.2
07/05:00pm ENE 12 22 - - - - - - - 13.6 1007.9 0.2
07/04:30pm SSE 16 31 - - - - - - - 13.7 1007.5 0.2
07/04:23pm SE 14 26 - - - - - - - 13.6 1007.4 0.2
07/04:00pm NNE 10 19 - - - - - - - 13.3 1007.5 0.2
07/03:30pm NNE 11 18 - - - - - - - 13.5 1007.4 0.0
07/03:05pm WNW 18 28 - - - - - - - 13.4 1007.2 0.0
07/03:02pm WNW 20 28 - - - - - - - 14.2 1006.9 0.0
07/03:00pm W 21 28 - - - - - - - 14.2 1007.3 0.0
07/02:30pm W 23 32 - - - - - - - 14.3 1007.2 0.0
07/02:04pm WNW 16 28 - - - - - - - 14.7 1007.1 0.0
07/02:00pm WNW 16 24 - - - - - - - 15.1 1007.2 0.0
07/01:37pm WNW 15 28 - - - - - - - 15.2 1007.2 0.0
07/01:30pm WNW 16 23 - - - - - - - 16.0 1007.3 0.0
07/01:20pm WNW 15 25 - - - - - - - 15.8 1007.2 0.0
07/01:00pm W 12 19 - - - - - - - 16.0 1007.2 0.0
07/12:30pm W 15 21 - - - - - - - 15.6 1007.3 0.0
07/12:00pm W 13 20 - - - - - - - 15.7 1007.4 0.0
07/11:30am W 13 18 - - - - - - - 14.9 1007.3 0.0
07/11:00am W 15 19 - - - - - - - 14.8 1007.1 0.0
07/10:30am WNW 12 22 - - - - - - - 14.8 1007.1 0.0
07/10:00am NNE 7 13 - - - - - - - 14.8 1006.9 0.0
07/09:30am NE 8 13 - - - - - - - 14.0 1006.9 0.0
07/09:00am NNE 8 13 - - - - - - - 13.2 1006.9 0.0
07/08:30am N 6 10 - - - - - - - 15.0 1006.7 0.0
07/08:00am E 6 10 - - - - - - - 13.9 1006.4 0.0
07/07:30am SE 9 17 - - - - - - - 13.1 1006.0 0.0
07/07:00am SSE 9 17 - - - - - - - 13.0 1005.7 0.0
07/06:30am S 8 14 - - - - - - - 12.9 1005.5 0.0
07/06:00am S 10 16 - - - - - - - 12.9 1005.3 0.0
07/05:30am S 13 17 - - - - - - - 13.1 1005.1 0.0
07/05:00am WSW 8 13 - - - - - - - 12.9 1004.9 0.0
07/04:30am NW 5 5 - - - - - - - 11.3 1004.9 0.0
07/04:00am ENE 4 5 - - - - - - - 11.3 1004.9 0.0
07/03:30am CALM 0 1 - - - - - - - 12.0 1005.1 0.0
07/03:00am ENE 1 3 - - - - - - - 12.4 1005.4 0.0
07/02:30am E 4 5 - - - - - - - 13.1 1005.7 0.0
07/02:00am E 4 6 - - - - - - - 13.6 1005.9 0.0
07/01:30am ENE 4 6 - - - - - - - 13.7 1006.1 0.0
07/01:00am ENE 5 7 - - - - - - - 13.6 1006.4 0.0
07/12:30am E 6 9 - - - - - - - 13.7 1006.5 0.0
07/12:00am E 6 8 - - - - - - - 13.5 1006.9 0.0
 
Date/Time
EDT
Wind Sea
Height
m
Swell Vis
km
Cloud Weather Temp
°C
Press
MSL
hPa
Rain since
9am
mm
Dir  Spd
kts
Gust
kts
Height
m
Period
s
Dir
06/11:30pm E 7 9 - - - - - - - 13.4 1007.2 0.0
06/11:00pm ESE 7 10 - - - - - - - 13.5 1007.3 0.0
06/10:30pm SE 7 11 - - - - - - - 13.3 1007.5 0.0
06/10:00pm SE 7 9 - - - - - - - 13.3 1008.0 0.0
06/09:30pm SE 7 10 - - - - - - - 13.4 1008.3 0.0
06/09:00pm SE 7 11 - - - - - - - 13.5 1008.4 0.0
06/08:30pm ESE 6 9 - - - - - - - 13.6 1008.4 0.0
06/08:00pm SE 7 12 - - - - - - - 13.8 1008.5 0.0
06/07:30pm SSE 10 13 - - - - - - - 13.9 1008.6 0.0
06/07:00pm SSE 10 13 - - - - - - - 14.4 1008.8 0.0
06/06:30pm SSE 10 15 - - - - - - - 15.3 1008.8 0.0
06/06:00pm SSE 10 13 - - - - - - - 14.5 1008.9 0.0
06/05:30pm SSE 10 15 - - - - - - - 15.9 1009.0 0.0
06/05:00pm SSE 12 15 - - - - - - - 16.2 1009.1 0.0
06/04:30pm SSE 10 13 - - - - - - - 15.6 1009.7 0.0
06/04:00pm SSE 12 15 - - - - - - - 16.4 1010.0 0.0
06/03:30pm SSE 9 11 - - - - - - - 17.3 1010.4 0.0
06/03:00pm SSE 7 10 - - - - - - - 16.6 1011.0 0.0
06/02:30pm SSE 8 12 - - - - - - - 16.8 1011.1 0.0
06/02:00pm SE 8 11 - - - - - - - 17.0 1011.3 0.0
06/01:30pm SE 7 10 - - - - - - - 17.3 1011.7 0.0
06/01:00pm SE 7 10 - - - - - - - 17.3 1012.0 0.0
06/12:30pm SE 8 11 - - - - - - - 17.1 1012.1 0.0
06/12:00pm ESE 9 12 - - - - - - - 16.9 1012.5 0.0
06/11:30am SE 9 15 - - - - - - - 16.0 1012.6 0.0
06/11:00am SE 9 13 - - - - - - - 16.1 1013.0 0.0
06/10:30am ESE 10 15 - - - - - - - 14.6 1013.6 0.0
06/10:00am SE 11 16 - - - - - - - 15.2 1013.6 0.0
06/09:30am SE 10 16 - - - - - - - 14.4 1013.8 0.0
06/09:00am SSE 12 16 - - - - - - - 13.5 1014.1 0.0
06/08:30am SE 11 15 - - - - - - - 13.9 1014.3 0.0
06/08:00am SSE 12 16 - - - - - - - 13.8 1014.1 0.0
06/07:30am SSE 15 21 - - - - - - - 12.5 1013.6 0.0
06/07:00am SSE 13 21 - - - - - - - 12.7 1013.9 0.0
06/06:30am SSE 14 19 - - - - - - - 12.3 1013.8 0.0
06/06:00am S 13 17 - - - - - - - 12.4 1014.1 0.0
06/05:30am S 12 17 - - - - - - - 12.2 1014.2 0.0
06/05:00am SSE 14 19 - - - - - - - 12.2 1014.3 0.0
06/04:30am SSE 12 19 - - - - - - - 12.3 1014.3 0.0
06/04:00am SSE 10 16 - - - - - - - 12.2 1014.6 0.0
06/03:30am SSE 13 17 - - - - - - - 12.2 1015.2 0.0
06/03:00am SSE 12 16 - - - - - - - 12.3 1015.4 0.0
06/02:30am SSE 12 16 - - - - - - - 12.4 1015.6 0.0
06/02:00am SSE 12 20 - - - - - - - 12.4 1015.8 0.0
06/01:30am SSE 12 17 - - - - - - - 12.4 1016.2 0.0
06/01:00am SSE 11 17 - - - - - - - 12.8 1016.3 0.0
06/12:30am SSE 15 19 - - - - - - - 12.8 1016.5 0.0
06/12:00am SSE 14 19 - - - - - - - 12.8 1016.6 0.0
 
Date/Time
EDT
Wind Sea
Height
m
Swell Vis
km
Cloud Weather Temp
°C
Press
MSL
hPa
Rain since
9am
mm
Dir  Spd
kts
Gust
kts
Height
m
Period
s
Dir
05/11:30pm SSE 15 20 - - - - - - - 12.9 1016.6 0.0
05/11:00pm SSE 15 20 - - - - - - - 12.7 1016.8 0.0
05/10:30pm SSE 17 23 - - - - - - - 13.0 1016.9 0.0
05/10:00pm SSE 14 23 - - - - - - - 13.0 1017.0 0.0
05/09:30pm SSE 17 22 - - - - - - - 13.1 1016.8 0.0
05/09:00pm S 17 21 - - - - - - - 12.9 1017.0 0.0
05/08:30pm S 14 20 - - - - - - - 13.1 1017.1 0.0
05/08:00pm S 14 18 - - - - - - - 13.2 1017.2 0.0
05/07:30pm S 13 18 - - - - - - - 13.1 1017.1 0.0
05/07:00pm S 13 18 - - - - - - - 13.4 1016.8 0.0
05/06:30pm S 14 19 - - - - - - - 13.3 1016.6 0.0
05/06:00pm S 15 22 - - - - - - - 13.4 1016.6 0.0
05/05:30pm S 15 21 - - - - - - - 13.8 1016.6 0.0
05/05:00pm S 16 21 - - - - - - - 14.2 1016.5 0.0
05/04:30pm S 15 21 - - - - - - - 14.1 1016.6 0.0
05/04:00pm S 17 22 - - - - - - - 14.2 1016.7 0.0
05/03:30pm S 17 25 - - - - - - - 14.1 1016.8 0.0
05/03:00pm SSW 14 20 - - - - - - - 14.5 1016.7 0.0
05/02:30pm SSW 16 24 - - - - - - - 14.3 1016.8 0.0
05/02:00pm S 15 21 - - - - - - - 14.8 1016.8 0.0
05/01:30pm S 16 21 - - - - - - - 14.9 1016.8 0.0
05/01:00pm S 20 25 - - - - - - - 14.7 1016.6 0.0
05/12:30pm S 17 23 - - - - - - - 14.8 1016.4 0.0
05/12:00pm S 18 24 - - - - - - - 14.5 1016.3 0.0
05/11:30am S 17 26 - - - - - - - 14.1 1016.1 0.0
05/11:00am S 19 26 - - - - - - - 14.1 1015.7 0.0
05/10:30am S 20 27 - - - - - - - 14.6 1015.3 0.0
05/10:00am S 19 27 - - - - - - - 13.5 1015.2 0.0
05/09:30am S 21 27 - - - - - - - 12.7 1015.1 0.0
05/09:00am S 22 30 - - - - - - - 12.7 1014.9 0.4
05/08:30am S 22 28 - - - - - - - 13.1 1014.6 0.4
05/08:20am S 21 31 - - - - - - - 12.5 1014.5 0.4
05/08:00am S 23 28 - - - - - - - 12.3 1014.3 0.4
05/07:30am S 22 29 - - - - - - - 13.0 1013.8 0.4
05/07:00am S 21 30 - - - - - - - 13.0 1013.6 0.2
05/06:42am S 19 29 - - - - - - - 13.4 1013.4 0.0
05/06:30am S 23 32 - - - - - - - 13.2 1013.3 0.0
05/06:24am S 20 30 - - - - - - - 13.6 1013.2 0.0
05/06:00am S 22 29 - - - - - - - 13.4 1013.0 0.0
05/05:30am S 21 29 - - - - - - - 13.9 1012.7 0.0
05/05:00am S 21 30 - - - - - - - 13.9 1012.1 0.0
05/04:55am S 20 30 - - - - - - - 14.2 1012.1 0.0
05/04:30am S 21 29 - - - - - - - 14.8 1011.7 0.0
05/04:10am S 18 28 - - - - - - - 14.6 1011.6 0.0
05/04:00am S 20 27 - - - - - - - 14.7 1011.6 0.0
05/03:30am S 17 24 - - - - - - - 14.6 1011.5 0.0
05/03:01am S 18 31 - - - - - - - 14.5 1011.3 0.0
05/03:00am S 17 26 - - - - - - - 14.6 1011.3 0.0
05/02:39am S 20 31 - - - - - - - 14.5 1011.1 0.0
05/02:30am SSW 23 31 - - - - - - - 14.5 1010.9 0.0
05/02:00am SSW 21 29 - - - - - - - 14.5 1010.7 0.0
05/01:45am SSW 21 31 - - - - - - - 14.5 1010.7 0.0
05/01:30am SSW 23 31 - - - - - - - 14.4 1010.6 0.0
05/01:00am SSW 21 29 - - - - - - - 14.5 1010.3 0.0
05/12:30am SSW 19 29 - - - - - - - 14.9 1010.1 0.0
05/12:00am S 16 27 - - - - - - - 15.2 1009.5 0.0
 
Date/Time
EDT
Wind Sea
Height
m
Swell Vis
km
Cloud Weather Temp
°C
Press
MSL
hPa
Rain since
9am
mm
Dir  Spd
kts
Gust
kts
Height
m
Period
s
Dir
04/11:52pm S 15 27 - - - - - - - 15.2 1009.6 0.0
04/11:30pm SSE 11 19 - - - - - - - 15.7 1009.3 0.0
04/11:00pm ENE 10 17 - - - - - - - 15.9 1009.0 0.0
04/10:30pm NNW 11 19 - - - - - - - 15.7 1008.9 0.0
04/10:15pm WNW 16 26 - - - - - - - 15.7 1008.6 0.0
04/10:00pm W 20 27 - - - - - - - 15.7 1008.6 0.0
04/09:30pm W 15 24 - - - - - - - 15.9 1008.3 0.0

Other formats

Comma delimited format used in spreadsheet applications
http://www.bom.gov.au/fwo/IDV60701/IDV60701.94826.axf

JavaScript Object Notation format (JSON) in row-major order
http://www.bom.gov.au/fwo/IDV60701/IDV60701.94826.json

Data quality

Most of these data are generated automatically and are frequently updated. Quality checks on data are not normally performed. It is possible for incorrect values to appear. Refer to information at About Latest Weather Observations and please check the disclaimer before using these data.